createdAt,value
2019-04-25T00:01:07.950Z,34.90
2019-04-25T00:03:36.796Z,34.80
2019-04-25T00:06:04.531Z,35.10
2019-04-25T00:08:32.088Z,35.10
2019-04-25T00:11:01.626Z,35.30
2019-04-25T00:13:29.614Z,35.50
2019-04-25T00:15:57.121Z,35.60
2019-04-25T00:18:24.603Z,35.70
2019-04-25T00:20:56.634Z,35.70
2019-04-25T00:23:24.195Z,35.80
2019-04-25T00:26:01.344Z,37.40
2019-04-25T00:28:28.763Z,36.40
2019-04-25T00:30:56.333Z,36.20
2019-04-25T00:33:23.751Z,36.50
2019-04-25T00:35:51.750Z,36.60
2019-04-25T00:38:20.214Z,36.50
2019-04-25T00:40:48.078Z,36.80
2019-04-25T00:43:15.552Z,37.00
2019-04-25T00:45:44.316Z,36.90
2019-04-25T00:48:12.244Z,36.90
2019-04-25T00:50:39.680Z,37.20
2019-04-25T00:53:07.026Z,37.40
2019-04-25T00:55:34.361Z,37.40
2019-04-25T00:58:08.428Z,37.40
2019-04-25T01:00:49.325Z,37.60
2019-04-25T01:03:21.705Z,37.70
2019-04-25T01:05:49.619Z,37.70
2019-04-25T01:08:17.123Z,37.80
2019-04-25T01:10:44.567Z,37.50
2019-04-25T01:13:12.024Z,38.10
2019-04-25T01:15:39.496Z,38.10
2019-04-25T01:18:07.434Z,38.30
2019-04-25T01:20:34.835Z,38.40
2019-04-25T01:23:03.714Z,38.40
2019-04-25T01:25:40.338Z,38.60
2019-04-25T01:28:00.491Z,38.70
2019-04-25T01:30:28.130Z,38.80
2019-04-25T01:32:55.582Z,38.90
2019-04-25T01:35:45.312Z,38.90
2019-04-25T01:38:24.184Z,39.10
2019-04-25T01:41:03.191Z,39.10
2019-04-25T01:43:43.729Z,39.00
2019-04-25T01:46:14.592Z,39.00
2019-04-25T01:48:40.862Z,39.00
2019-04-25T01:51:08.266Z,39.30
2019-04-25T01:53:35.708Z,39.40
2019-04-25T01:56:07.491Z,39.50
2019-04-25T01:58:33.760Z,39.40
2019-04-25T02:01:03.176Z,39.70
2019-04-25T02:03:31.442Z,40.20
2019-04-25T02:05:59.114Z,39.80
2019-04-25T02:08:26.546Z,39.90
2019-04-25T02:11:04.793Z,39.90
2019-04-25T02:13:33.643Z,39.90
2019-04-25T02:16:01.450Z,40.00
2019-04-25T02:18:28.780Z,40.10
2019-04-25T02:20:58.861Z,40.20
2019-04-25T02:23:25.405Z,40.40
2019-04-25T02:26:06.761Z,40.30
2019-04-25T02:28:23.702Z,40.40
2019-04-25T02:30:51.275Z,40.50
2019-04-25T02:33:18.647Z,42.20
2019-04-25T02:35:46.876Z,40.70
2019-04-25T02:38:16.914Z,40.90
2019-04-25T02:40:45.399Z,40.80
2019-04-25T02:43:14.215Z,41.00
2019-04-25T02:46:01.709Z,41.00
2019-04-25T02:48:51.514Z,41.10
2019-04-25T02:51:30.183Z,41.10
2019-04-25T02:54:00.066Z,41.20
2019-04-25T02:56:34.281Z,41.20
2019-04-25T02:58:56.774Z,41.30
2019-04-25T03:01:26.173Z,41.50
2019-04-25T03:03:54.550Z,41.50
2019-04-25T03:06:24.709Z,41.50
2019-04-25T03:08:54.072Z,41.50
2019-04-25T03:11:21.246Z,41.60
2019-04-25T03:13:48.736Z,41.70
2019-04-25T03:16:16.170Z,41.70
2019-04-25T03:19:00.558Z,41.80
2019-04-25T03:21:31.249Z,41.80
2019-04-25T03:24:07.993Z,41.80
2019-04-25T03:26:40.410Z,42.00
2019-04-25T03:29:04.953Z,42.00
2019-04-25T03:31:34.947Z,41.90
2019-04-25T03:34:07.361Z,42.10
2019-04-25T03:36:31.620Z,42.20
2019-04-25T03:38:59.010Z,42.40
2019-04-25T03:41:26.402Z,42.40
2019-04-25T03:43:54.130Z,42.50
2019-04-25T03:46:23.244Z,42.50
2019-04-25T03:48:50.946Z,42.60
2019-04-25T03:51:18.245Z,42.70
2019-04-25T03:53:45.589Z,42.80
2019-04-25T03:56:14.676Z,42.80
2019-04-25T03:58:43.799Z,42.90
2019-04-25T04:01:11.592Z,43.00
2019-04-25T04:03:38.919Z,43.00
2019-04-25T04:06:07.655Z,43.60
2019-04-25T04:08:35.790Z,43.10
2019-04-25T04:11:05.333Z,43.20
2019-04-25T04:13:34.128Z,43.10
2019-04-25T04:16:03.290Z,43.30
2019-04-25T04:18:50.492Z,43.20
2019-04-25T04:21:43.594Z,43.30
2019-04-25T04:24:23.912Z,43.40
2019-04-25T04:27:10.689Z,43.30
2019-04-25T04:29:38.232Z,43.30
2019-04-25T04:32:06.843Z,43.40
2019-04-25T04:34:34.450Z,43.50
2019-04-25T04:37:01.796Z,43.80
2019-04-25T04:39:29.169Z,43.90
2019-04-25T04:41:56.519Z,44.10
2019-04-25T04:44:24.160Z,44.00
2019-04-25T04:46:51.746Z,44.10
2019-04-25T04:49:19.094Z,44.20
2019-04-25T04:51:46.446Z,44.20
2019-04-25T04:54:14.646Z,44.40
2019-04-25T04:56:43.852Z,44.60
2019-04-25T04:59:12.362Z,44.70
2019-04-25T05:01:59.468Z,44.60
2019-04-25T05:04:33.427Z,44.80
2019-04-25T05:07:06.673Z,44.80
2019-04-25T05:09:34.070Z,45.60
2019-04-25T05:12:01.528Z,45.00
2019-04-25T05:14:28.943Z,45.10
2019-04-25T05:16:56.400Z,45.30
2019-04-25T05:19:24.071Z,45.20
2019-04-25T05:21:51.574Z,45.20
2019-04-25T05:24:24.582Z,45.20
2019-04-25T05:26:51.760Z,45.30
2019-04-25T05:29:21.323Z,45.40
2019-04-25T05:31:50.765Z,45.50
2019-04-25T05:34:18.320Z,45.50
2019-04-25T05:36:45.909Z,45.60
2019-04-25T05:39:15.668Z,45.70
2019-04-25T05:41:55.941Z,45.00
2019-04-25T05:44:25.143Z,45.50
2019-04-25T05:46:54.013Z,45.50
2019-04-25T05:49:21.798Z,45.60
2019-04-25T05:51:49.240Z,45.50
2019-04-25T05:54:19.014Z,45.40
2019-04-25T05:56:46.519Z,44.80
2019-04-25T05:59:14.001Z,46.00
2019-04-25T06:02:16.190Z,45.20
2019-04-25T06:04:43.945Z,45.20
2019-04-25T06:07:11.439Z,44.90
2019-04-25T06:09:58.317Z,44.40
2019-04-25T06:12:50.728Z,44.60
2019-04-25T06:15:20.498Z,44.40
2019-04-25T06:18:24.837Z,44.30
2019-04-25T06:20:54.296Z,43.90
2019-04-25T06:23:41.912Z,44.00
2019-04-25T06:26:23.089Z,43.90
2019-04-25T06:28:52.051Z,43.90
2019-04-25T06:31:10.785Z,43.60
2019-04-25T06:33:38.431Z,42.50
2019-04-25T06:36:06.037Z,43.30
2019-04-25T06:38:33.594Z,43.30
2019-04-25T06:41:24.669Z,42.40
2019-04-25T06:43:54.179Z,42.90
2019-04-25T06:46:41.293Z,42.20
2019-04-25T06:49:13.478Z,42.60
2019-04-25T06:51:55.102Z,42.40
2019-04-25T06:54:25.254Z,42.40
2019-04-25T06:56:53.559Z,42.30
2019-04-25T06:59:23.017Z,42.00
2019-04-25T07:01:50.430Z,42.00
2019-04-25T07:04:18.425Z,42.00
2019-04-25T07:06:45.886Z,41.70
2019-04-25T07:09:14.602Z,41.60
2019-04-25T07:11:44.040Z,41.50
2019-04-25T07:14:14.225Z,41.40
2019-04-25T07:16:43.330Z,41.20
2019-04-25T07:19:11.057Z,40.90
2019-04-25T07:21:38.811Z,40.70
2019-04-25T07:24:06.367Z,40.60
2019-04-25T07:26:55.752Z,40.40
2019-04-25T07:29:54.642Z,39.70
2019-04-25T07:32:38.845Z,40.10
2019-04-25T07:35:06.694Z,39.80
2019-04-25T07:37:37.229Z,39.40
2019-04-25T07:40:05.904Z,39.20
2019-04-25T07:42:34.275Z,39.40
2019-04-25T07:45:04.251Z,39.10
2019-04-25T07:47:32.489Z,39.00
2019-04-25T07:50:01.315Z,38.00
2019-04-25T07:52:28.855Z,38.90
2019-04-25T07:54:56.350Z,38.90
2019-04-25T07:57:23.896Z,38.70
2019-04-25T07:59:52.162Z,38.40
2019-04-25T08:02:20.674Z,38.10
2019-04-25T08:04:48.097Z,37.60
2019-04-25T08:07:15.527Z,37.40
2019-04-25T08:09:44.255Z,37.40
2019-04-25T08:12:13.339Z,37.30
2019-04-25T08:14:55.272Z,37.20
2019-04-25T08:17:45.016Z,37.00
2019-04-25T08:20:13.549Z,37.10
2019-04-25T08:22:51.952Z,36.70
2019-04-25T08:25:13.793Z,36.70
2019-04-25T08:27:41.326Z,36.10
2019-04-25T08:30:09.003Z,36.10
2019-04-25T08:32:36.717Z,35.90
2019-04-25T08:35:05.558Z,35.60
2019-04-25T08:37:34.435Z,35.70
2019-04-25T08:40:03.904Z,35.40
2019-04-25T08:42:32.734Z,34.90
2019-04-25T08:45:00.787Z,34.90
2019-04-25T08:47:28.216Z,34.70
2019-04-25T08:50:08.681Z,34.30
2019-04-25T08:52:36.366Z,34.00
2019-04-25T08:55:10.434Z,34.20
2019-04-25T08:57:55.904Z,34.20
2019-04-25T09:00:59.223Z,33.90
2019-04-25T09:03:26.458Z,33.60
2019-04-25T09:05:54.132Z,33.70
2019-04-25T09:08:21.638Z,32.90
2019-04-25T09:10:49.087Z,32.90
2019-04-25T09:13:16.638Z,32.20
2019-04-25T09:15:45.663Z,31.70
2019-04-25T09:18:14.118Z,32.10
2019-04-25T09:20:43.082Z,31.00
2019-04-25T09:23:11.200Z,31.60
2019-04-25T09:25:38.746Z,31.40
2019-04-25T09:28:06.381Z,30.90
2019-04-25T09:30:35.014Z,31.90
2019-04-25T09:33:04.662Z,30.60
2019-04-25T09:35:33.470Z,29.80
2019-04-25T09:38:01.171Z,29.80
2019-04-25T09:40:28.766Z,29.60
2019-04-25T09:42:56.396Z,28.80
2019-04-25T09:45:43.907Z,27.60
2019-04-25T09:48:23.131Z,26.90
2019-04-25T09:50:54.819Z,25.50
2019-04-25T09:53:25.541Z,25.00
2019-04-25T09:55:57.240Z,24.50
2019-04-25T09:58:50.068Z,24.50
2019-04-25T10:01:17.567Z,24.70
2019-04-25T10:03:45.728Z,24.20
2019-04-25T10:06:16.060Z,23.20
2019-04-25T10:08:45.361Z,22.70
2019-04-25T10:11:14.789Z,21.80
2019-04-25T10:13:47.852Z,21.00
2019-04-25T10:16:15.296Z,19.70
2019-04-25T10:18:43.697Z,19.00
2019-04-25T10:21:14.152Z,18.00
2019-04-25T10:23:43.741Z,17.30
2019-04-25T10:26:12.539Z,17.00
2019-04-25T10:28:41.619Z,16.40
2019-04-25T10:31:10.219Z,15.90
2019-04-25T10:33:38.863Z,15.20
2019-04-25T10:36:10.275Z,14.80
2019-04-25T10:38:38.117Z,14.30
2019-04-25T10:41:05.914Z,14.30
2019-04-25T10:43:34.339Z,13.20
2019-04-25T10:46:03.483Z,13.50
2019-04-25T10:48:31.488Z,13.40
2019-04-25T10:50:59.090Z,13.50
2019-04-25T10:53:26.820Z,13.20
2019-04-25T10:55:54.798Z,13.40
2019-04-25T10:58:22.497Z,13.00
2019-04-25T11:00:51.584Z,13.00
2019-04-25T11:03:39.625Z,13.40
2019-04-25T11:06:08.007Z,12.80
2019-04-25T11:08:35.458Z,14.40
2019-04-25T11:11:03.775Z,14.70
2019-04-25T11:13:33.900Z,14.90
2019-04-25T11:16:03.120Z,15.10
2019-04-25T11:18:31.446Z,15.00
2019-04-25T11:20:59.525Z,14.80
2019-04-25T11:23:27.006Z,15.40
2019-04-25T11:25:54.523Z,15.10
2019-04-25T11:28:23.457Z,15.30
2019-04-25T11:30:51.102Z,15.30
2019-04-25T11:33:18.833Z,15.40
2019-04-25T11:35:47.764Z,15.40
2019-04-25T11:38:21.250Z,15.30
2019-04-25T11:41:28.361Z,15.30
2019-04-25T11:43:56.824Z,15.40
2019-04-25T11:46:24.431Z,15.50
2019-04-25T11:48:52.674Z,15.60
2019-04-25T11:51:21.560Z,15.60
2019-04-25T11:53:49.091Z,15.40
2019-04-25T11:56:16.613Z,15.40
2019-04-25T11:58:45.649Z,15.30
2019-04-25T12:01:15.052Z,15.20
2019-04-25T12:03:45.093Z,15.40
2019-04-25T12:06:12.016Z,14.80
2019-04-25T12:08:39.849Z,14.70
2019-04-25T12:11:07.695Z,13.70
2019-04-25T12:13:36.686Z,14.50
2019-04-25T12:16:04.455Z,14.40
2019-04-25T12:18:33.345Z,15.00
2019-04-25T12:21:02.041Z,14.60
2019-04-25T12:23:29.675Z,14.60
2019-04-25T12:25:57.641Z,15.00
2019-04-25T12:28:25.461Z,15.10
2019-04-25T12:30:54.955Z,15.50
2019-04-25T12:33:23.909Z,15.20
2019-04-25T12:35:51.996Z,15.00
2019-04-25T12:38:20.446Z,14.90
2019-04-25T12:40:48.200Z,15.00
2019-04-25T12:43:15.806Z,15.40
2019-04-25T12:46:02.370Z,15.00
2019-04-25T12:48:31.157Z,15.20
2019-04-25T12:50:58.774Z,15.30
2019-04-25T12:53:49.398Z,15.10
2019-04-25T12:56:43.296Z,14.90
2019-04-25T12:59:17.217Z,14.30
2019-04-25T13:01:45.679Z,15.40
2019-04-25T13:04:14.680Z,15.40
2019-04-25T13:06:44.848Z,16.10
2019-04-25T13:09:13.884Z,14.90
2019-04-25T13:11:44.075Z,16.00
2019-04-25T13:14:12.440Z,14.60
2019-04-25T13:16:41.675Z,15.70
2019-04-25T13:19:24.103Z,14.20
2019-04-25T13:21:50.030Z,16.40
2019-04-25T13:24:23.340Z,15.00
2019-04-25T13:29:43.379Z,14.60
2019-04-25T13:32:25.907Z,15.40
2019-04-25T13:34:53.824Z,15.50
2019-04-25T13:37:21.482Z,15.40
2019-04-25T13:39:51.460Z,15.30
2019-04-25T13:42:19.081Z,15.40
2019-04-25T13:44:46.574Z,15.50
2019-04-25T13:47:14.387Z,15.60
2019-04-25T13:49:42.394Z,15.60
2019-04-25T13:52:10.373Z,15.60
2019-04-25T13:54:38.276Z,15.80
2019-04-25T13:57:05.926Z,15.90
2019-04-25T13:59:34.808Z,16.00
2019-04-25T14:02:04.556Z,16.00
2019-04-25T14:04:32.072Z,16.20
2019-04-25T14:06:59.798Z,16.20
2019-04-25T14:09:29.144Z,16.20
2019-04-25T14:11:56.930Z,16.30
2019-04-25T14:14:24.702Z,16.40
2019-04-25T14:17:17.158Z,16.30
2019-04-25T14:20:11.668Z,16.20
2019-04-25T14:22:39.765Z,16.20
2019-04-25T14:25:08.051Z,16.20
2019-04-25T14:27:35.741Z,16.60
2019-04-25T14:30:04.034Z,16.30
2019-04-25T14:32:33.487Z,16.70
2019-04-25T14:35:01.266Z,17.00
2019-04-25T14:37:32.252Z,16.90
2019-04-25T14:39:58.240Z,16.90
2019-04-25T14:42:26.478Z,17.00
2019-04-25T14:44:54.022Z,16.50
2019-04-25T14:47:22.083Z,17.00
2019-04-25T14:49:50.752Z,17.00
2019-04-25T14:52:18.289Z,17.00
2019-04-25T14:54:53.745Z,17.00
2019-04-25T14:57:24.261Z,17.10
2019-04-25T14:59:52.065Z,17.00
2019-04-25T15:02:22.954Z,17.20
2019-04-25T15:04:50.518Z,17.30
2019-04-25T15:07:18.135Z,16.60
2019-04-25T15:09:45.735Z,17.20
2019-04-25T15:12:13.781Z,17.30
2019-04-25T15:18:15.350Z,17.80
2019-04-25T15:20:46.753Z,17.70
2019-04-25T15:23:14.332Z,18.00
2019-04-25T15:25:42.169Z,18.00
2019-04-25T15:28:13.307Z,17.90
2019-04-25T15:30:40.992Z,18.00
2019-04-25T15:33:08.787Z,17.70
2019-04-25T15:35:42.665Z,18.00
2019-04-25T15:38:38.834Z,17.80
2019-04-25T15:41:15.611Z,17.70
2019-04-25T15:44:25.158Z,17.50
2019-04-25T15:46:54.068Z,17.40
2019-04-25T15:49:22.238Z,17.30
2019-04-25T15:51:49.949Z,17.10
2019-04-25T15:54:17.485Z,17.10
2019-04-25T15:56:44.998Z,16.90
2019-04-25T15:59:14.309Z,16.80
2019-04-25T16:01:41.904Z,16.60
2019-04-25T16:04:09.425Z,16.80
2019-04-25T16:06:37.264Z,16.80
2019-04-25T16:09:10.344Z,16.80
2019-04-25T16:11:37.645Z,16.90
2019-04-25T16:14:05.286Z,18.00
2019-04-25T16:16:33.235Z,16.70
2019-04-25T16:19:00.952Z,16.80
2019-04-25T16:21:29.134Z,16.90
2019-04-25T16:23:56.674Z,17.00
2019-04-25T16:26:24.286Z,17.00
2019-04-25T16:28:51.794Z,17.20
2019-04-25T16:31:23.436Z,17.20
2019-04-25T16:33:51.114Z,17.20
2019-04-25T16:36:18.657Z,17.20
2019-04-25T16:38:46.469Z,17.80
2019-04-25T16:41:14.151Z,16.90
2019-04-25T16:43:46.130Z,17.40
2019-04-25T16:46:14.061Z,17.50
2019-04-25T16:48:41.616Z,17.70
2019-04-25T16:51:09.106Z,17.70
2019-04-25T16:53:36.606Z,17.80
2019-04-25T16:56:04.887Z,17.90
2019-04-25T16:58:32.977Z,18.00
2019-04-25T17:01:10.235Z,18.10
2019-04-25T17:03:37.998Z,18.10
2019-04-25T17:06:05.803Z,18.20
2019-04-25T17:08:33.899Z,18.10
2019-04-25T17:11:01.458Z,18.70
2019-04-25T17:13:32.056Z,18.40
2019-04-25T17:16:09.216Z,19.10
2019-04-25T17:19:01.045Z,18.60
2019-04-25T17:21:31.325Z,18.70
2019-04-25T17:23:59.227Z,18.90
2019-04-25T17:26:28.923Z,19.60
2019-04-25T17:28:59.499Z,19.20
2019-04-25T17:31:38.860Z,19.20
2019-04-25T17:34:29.309Z,19.40
2019-04-25T17:37:19.385Z,19.90
2019-04-25T17:39:49.645Z,19.70
2019-04-25T17:42:17.325Z,19.50
2019-04-25T17:44:45.061Z,19.80
2019-04-25T17:47:12.636Z,19.70
2019-04-25T17:49:40.374Z,19.90
2019-04-25T17:52:08.217Z,20.00
2019-04-25T17:54:36.643Z,20.00
2019-04-25T17:57:04.553Z,20.30
2019-04-25T17:59:32.287Z,20.20
2019-04-25T18:02:01.083Z,20.50
2019-04-25T18:04:28.876Z,20.50
2019-04-25T18:06:56.522Z,20.50
2019-04-25T18:09:24.437Z,20.70
2019-04-25T18:11:54.890Z,20.70
2019-04-25T18:14:22.581Z,20.80
2019-04-25T18:16:50.060Z,20.90
2019-04-25T18:19:43.288Z,21.50
2019-04-25T18:22:43.386Z,21.10
2019-04-25T18:25:24.449Z,21.00
2019-04-25T18:28:20.738Z,21.00
2019-04-25T18:30:48.515Z,21.00
2019-04-25T18:33:28.802Z,23.30
2019-04-25T18:36:15.413Z,21.50
2019-04-25T18:39:01.114Z,21.50
2019-04-25T18:41:37.716Z,21.60
2019-04-25T18:44:05.262Z,21.50
2019-04-25T18:46:38.254Z,21.80
2019-04-25T18:49:05.974Z,21.90
2019-04-25T18:51:33.515Z,21.90
2019-04-25T18:54:29.682Z,21.90
2019-04-25T18:57:24.870Z,22.10
2019-04-25T19:00:11.775Z,22.10
2019-04-25T19:02:58.790Z,22.00
2019-04-25T19:05:45.129Z,22.30
2019-04-25T19:08:12.799Z,22.30
2019-04-25T19:10:40.779Z,22.40
2019-04-25T19:13:13.003Z,21.60
2019-04-25T19:15:40.229Z,21.70
2019-04-25T19:18:08.652Z,22.60
2019-04-25T19:20:36.454Z,22.60
2019-04-25T19:23:04.126Z,22.30
2019-04-25T19:25:31.712Z,22.80
2019-04-25T19:27:59.310Z,22.70
2019-04-25T19:30:27.124Z,22.90
2019-04-25T19:32:54.618Z,22.80
2019-04-25T19:35:22.225Z,22.90
2019-04-25T19:37:53.621Z,22.90
2019-04-25T19:40:33.106Z,22.90
2019-04-25T19:43:04.780Z,23.20
2019-04-25T19:45:33.358Z,23.10
2019-04-25T19:48:07.359Z,23.20
2019-04-25T19:50:34.930Z,23.10
2019-04-25T19:53:05.259Z,23.30
2019-04-25T19:55:32.733Z,23.30
2019-04-25T19:58:01.741Z,23.40
2019-04-25T20:00:29.477Z,23.40
2019-04-25T20:03:11.495Z,23.40
2019-04-25T20:11:53.625Z,23.70
2019-04-25T20:14:21.225Z,24.00
2019-04-25T20:16:49.656Z,23.50
2019-04-25T20:19:17.514Z,23.60
2019-04-25T20:21:45.784Z,23.40
2019-04-25T20:24:16.095Z,23.60
2019-04-25T20:27:10.751Z,23.60
2019-04-25T20:29:57.834Z,23.80
2019-04-25T20:32:25.490Z,23.20
2019-04-25T20:34:53.184Z,23.80
2019-04-25T20:37:20.727Z,23.80
2019-04-25T20:39:49.374Z,23.80
2019-04-25T20:42:16.981Z,24.00
2019-04-25T20:44:45.412Z,24.10
2019-04-25T20:47:14.016Z,24.10
2019-04-25T20:49:41.637Z,23.50
2019-04-25T20:52:09.171Z,22.80
2019-04-25T20:54:57.430Z,24.10
2019-04-25T20:58:05.018Z,24.30
2019-04-25T21:00:40.029Z,24.40
2019-04-25T21:03:08.053Z,24.40
2019-04-25T21:06:03.662Z,24.40
2019-04-25T21:08:31.283Z,24.80
2019-04-25T21:10:59.071Z,24.30
2019-04-25T21:13:35.786Z,24.40
2019-04-25T21:16:13.561Z,24.40
2019-04-25T21:18:51.062Z,24.50
2019-04-25T21:21:19.109Z,24.80
2019-04-25T21:23:47.043Z,24.90
2019-04-25T21:26:15.565Z,24.90
2019-04-25T21:28:43.403Z,24.10
2019-04-25T21:31:11.125Z,24.80
2019-04-25T21:33:39.430Z,24.80
2019-04-25T21:36:07.190Z,24.70
2019-04-25T21:38:35.387Z,24.80
2019-04-25T21:41:26.958Z,24.70
2019-04-25T21:44:00.195Z,24.60
2019-04-25T21:46:59.111Z,23.80
2019-04-25T21:49:28.785Z,25.00
2019-04-25T21:51:57.036Z,25.00
2019-04-25T21:54:24.520Z,24.90
2019-04-25T21:56:53.306Z,25.00
2019-04-25T21:59:21.611Z,25.10
2019-04-25T22:01:50.255Z,25.10
2019-04-25T22:04:17.817Z,25.10
2019-04-25T22:06:54.163Z,25.20
2019-04-25T22:09:23.502Z,25.20
2019-04-25T22:11:51.396Z,25.20
2019-04-25T22:14:19.264Z,25.30
2019-04-25T22:16:47.242Z,25.30
2019-04-25T22:19:15.008Z,25.40
2019-04-25T22:21:43.020Z,25.40
2019-04-25T22:24:14.499Z,25.40
2019-04-25T22:26:40.783Z,25.20
2019-04-25T22:29:08.917Z,25.40
2019-04-25T22:31:43.685Z,24.40
2019-04-25T22:34:20.510Z,25.40
2019-04-25T22:36:48.867Z,25.40
2019-04-25T22:39:16.299Z,25.50
2019-04-25T22:41:46.808Z,25.50
2019-04-25T22:44:16.277Z,25.60
2019-04-25T22:46:44.357Z,26.00
2019-04-25T22:49:12.887Z,25.50
2019-04-25T22:51:40.339Z,25.60
2019-04-25T22:54:10.031Z,25.80
2019-04-25T22:56:38.484Z,25.70
2019-04-25T22:59:07.050Z,25.10
2019-04-25T23:01:56.736Z,25.80
2019-04-25T23:04:34.197Z,26.40
2019-04-25T23:07:02.558Z,25.70
2019-04-25T23:09:32.531Z,25.80
2019-04-25T23:12:00.416Z,25.70
2019-04-25T23:14:28.165Z,25.70
2019-04-25T23:16:55.687Z,25.70
2019-04-25T23:19:23.161Z,25.80
2019-04-25T23:21:52.631Z,25.90
2019-04-25T23:24:21.891Z,26.00
2019-04-25T23:27:08.153Z,25.90
2019-04-25T23:29:36.779Z,25.90
2019-04-25T23:32:05.659Z,26.00
2019-04-25T23:34:33.712Z,26.10
2019-04-25T23:37:04.713Z,26.20
2019-04-25T23:39:33.074Z,26.20
2019-04-25T23:42:00.523Z,26.20
2019-04-25T23:44:27.999Z,26.20
2019-04-25T23:46:55.869Z,26.40
2019-04-25T23:49:23.296Z,26.40
2019-04-25T23:51:51.047Z,26.40
2019-04-25T23:54:18.395Z,26.40
2019-04-25T23:56:45.854Z,26.40
2019-04-25T23:59:13.573Z,26.40
